Terminal Aerodrome Forecast
Issued by NWS Duluth, MN

Home | Current Version | Previous Version | Text Only | Print | Product List | Glossary On
Versions: 1 2 3 4 5 6 7 8 9 10 11 12 13 14 15 16 17 18
650
FTUS43 KDLH 252320
TAFDLH
TAF
KDLH 252320Z 2600/2624 11013KT P6SM FEW035
     FM260300 11007KT P6SM VCSH OVC040
     FM260800 12006KT P6SM VCSH FEW007 OVC035
     FM261000 12005KT 5SM BR SCT007 OVC025
     FM261400 14008KT 5SM BR VCSH SCT007 OVC035
     FM261800 19007KT P6SM OVC015=

USA.gov is the U.S. government's official web portal to all federal, state and local government web resources and services.